Time,TemperatureF,DewpointF,PressureIn,WindDirection,WindDirectionDegrees,WindSpeedMPH,WindSpeedGustMPH,Humidity,HourlyPrecipIn,Conditions,Clouds,dailyrainin,SoftwareType,DateUTC
2013-05-02 00:02:00,61.2,53.0,30.04,North,5,11.0,15.0,74,0.00,,,0.00,weatherlink.com 1.10,2013-05-02 05:02:00,
2013-05-02 00:09:00,60.0,51.7,30.05,NNW,348,8.0,8.0,74,0.00,,,0.00,Wunderground v.1.15,2013-05-02 05:09:00,
2013-05-02 00:15:00,59.1,50.8,30.05,North,350,9.0,9.0,74,0.00,,,0.00,Wunderground v.1.15,2013-05-02 05:15:00,
2013-05-02 00:17:00,58.9,51.0,30.05,NNW,339,13.0,16.0,75,0.00,,,0.00,weatherlink.com 1.10,2013-05-02 05:17:00,
2013-05-02 00:25:00,58.2,50.3,30.05,NNW,339,7.0,9.0,75,0.00,,,0.00,Wunderground v.1.15,2013-05-02 05:25:00,
2013-05-02 00:32:00,57.5,50.0,30.06,NNW,346,14.0,14.0,76,0.00,,,0.00,weatherlink.com 1.10,2013-05-02 05:32:00,
2013-05-02 00:39:00,56.5,48.7,30.07,NNW,347,9.0,9.0,75,0.00,,,0.00,Wunderground v.1.15,2013-05-02 05:39:00,
2013-05-02 00:44:00,55.9,48.4,30.07,North,360,9.0,9.0,76,0.00,,,0.00,Wunderground v.1.15,2013-05-02 05:44:00,
2013-05-02 00:46:00,55.8,48.0,30.07,North,360,11.0,18.0,76,0.00,,,0.00,weatherlink.com 1.10,2013-05-02 05:46:00,
2013-05-02 00:54:00,55.3,47.9,30.08,NNE,27,8.0,9.0,76,0.00,,,0.00,Wunderground v.1.15,2013-05-02 05:54:00,
2013-05-02 00:59:00,55.1,47.7,30.08,NNW,339,8.0,8.0,76,0.00,,,0.00,Wunderground v.1.15,2013-05-02 05:59:00,
2013-05-02 01:01:00,55.0,48.0,30.08,North,5,7.0,14.0,76,0.00,,,0.00,weatherlink.com 1.10,2013-05-02 06:01:00,
2013-05-02 01:09:00,54.5,47.4,30.08,NNW,328,9.0,11.0,77,0.00,,,0.00,Wunderground v.1.15,2013-05-02 06:09:00,
2013-05-02 01:17:00,54.0,47.0,30.08,North,355,17.0,21.0,77,0.00,,,0.00,weatherlink.com 1.10,2013-05-02 06:17:00,
2013-05-02 01:24:00,53.7,46.7,30.09,NNW,347,12.0,13.0,77,0.00,,,0.00,Wunderground v.1.15,2013-05-02 06:24:00,
2013-05-02 01:29:00,53.7,46.3,30.09,NNW,347,10.0,10.0,76,0.00,,,0.00,Wunderground v.1.15,2013-05-02 06:29:00,
2013-05-02 01:32:00,53.7,46.0,30.10,North,5,9.0,15.0,76,0.00,,,0.00,weatherlink.com 1.10,2013-05-02 06:32:00,
2013-05-02 01:39:00,53.4,46.0,30.11,NNW,336,9.0,15.0,76,0.00,,,0.00,Wunderground v.1.15,2013-05-02 06:39:00,
2013-05-02 01:45:00,52.9,45.5,30.10,NNE,13,10.0,15.0,76,0.00,,,0.00,Wunderground v.1.15,2013-05-02 06:45:00,
2013-05-02 01:49:00,52.6,46.0,30.11,North,360,8.0,18.0,77,0.00,,,0.00,weatherlink.com 1.10,2013-05-02 06:49:00,
2013-05-02 01:50:00,52.6,45.6,30.10,NW,325,11.0,11.0,77,0.00,,,0.00,Wunderground v.1.15,2013-05-02 06:50:00,
2013-05-02 01:55:00,52.6,45.6,30.11,North,360,10.0,11.0,77,0.00,,,0.00,Wunderground v.1.15,2013-05-02 06:55:00,
2013-05-02 02:00:00,52.6,45.6,30.11,North,360,8.0,8.0,77,0.00,,,0.00,Wunderground v.1.15,2013-05-02 07:00:00,
2013-05-02 02:04:00,52.6,46.0,30.11,NNW,329,8.0,15.0,77,0.00,,,0.00,weatherlink.com 1.10,2013-05-02 07:04:00,
2013-05-02 02:09:00,52.3,45.3,30.11,North,360,8.0,8.0,77,0.00,,,0.00,Wunderground v.1.15,2013-05-02 07:09:00,
2013-05-02 02:19:00,51.8,45.0,30.11,North,360,6.0,21.0,77,0.00,,,0.00,weatherlink.com 1.10,2013-05-02 07:19:00,
2013-05-02 02:25:00,51.6,44.6,30.11,North,355,10.0,13.0,77,0.00,,,0.00,Wunderground v.1.15,2013-05-02 07:25:00,
2013-05-02 02:30:00,51.6,44.6,30.11,NNW,345,9.0,9.0,77,0.00,,,0.00,Wunderground v.1.15,2013-05-02 07:30:00,
2013-05-02 02:34:00,51.4,44.0,30.11,North,360,14.0,20.0,77,0.00,,,0.00,weatherlink.com 1.10,2013-05-02 07:34:00,
2013-05-02 02:40:00,51.0,44.0,30.10,North,5,12.0,12.0,77,0.00,,,0.00,Wunderground v.1.15,2013-05-02 07:40:00,
2013-05-02 02:49:00,50.9,44.0,30.11,NNW,345,10.0,21.0,77,0.00,,,0.00,weatherlink.com 1.10,2013-05-02 07:49:00,
2013-05-02 02:50:00,50.9,43.9,30.10,North,360,11.0,15.0,77,0.00,,,0.00,Wunderground v.1.15,2013-05-02 07:50:00,
2013-05-02 03:00:00,50.6,43.7,30.11,North,355,11.0,15.0,77,0.00,,,0.00,Wunderground v.1.15,2013-05-02 08:00:00,
2013-05-02 03:04:00,50.6,44.0,30.11,North,355,16.0,20.0,77,0.00,,,0.00,weatherlink.com 1.10,2013-05-02 08:04:00,
2013-05-02 03:10:00,50.1,43.2,30.11,North,355,14.0,14.0,77,0.00,,,0.00,Wunderground v.1.15,2013-05-02 08:10:00,
2013-05-02 03:15:00,49.9,43.0,30.11,NNW,348,12.0,14.0,77,0.00,,,0.00,Wunderground v.1.15,2013-05-02 08:15:00,
2013-05-02 03:19:00,49.6,42.0,30.11,North,355,15.0,23.0,76,0.00,,,0.00,weatherlink.com 1.10,2013-05-02 08:19:00,
2013-05-02 03:24:00,49.2,42.3,30.11,NNW,348,13.0,21.0,77,0.00,,,0.00,Wunderground v.1.15,2013-05-02 08:24:00,
2013-05-02 03:29:00,49.0,42.1,30.12,NNW,335,14.0,14.0,77,0.00,,,0.00,Wunderground v.1.15,2013-05-02 08:29:00,
2013-05-02 03:34:00,48.9,42.0,30.12,North,5,14.0,24.0,77,0.00,,,0.00,weatherlink.com 1.10,2013-05-02 08:34:00,
2013-05-02 03:40:00,48.6,41.7,30.12,NNW,342,11.0,11.0,77,0.00,,,0.00,Wunderground v.1.15,2013-05-02 08:40:00,
2013-05-02 03:45:00,48.5,41.6,30.12,North,5,11.0,14.0,77,0.00,,,0.00,Wunderground v.1.15,2013-05-02 08:45:00,
2013-05-02 03:49:00,48.1,41.0,30.13,North,10,18.0,27.0,77,0.00,,,0.00,weatherlink.com 1.10,2013-05-02 08:49:00,
2013-05-02 03:55:00,47.8,41.3,30.13,North,355,13.0,13.0,78,0.00,,,0.00,Wunderground v.1.15,2013-05-02 08:55:00,
2013-05-02 04:00:00,47.8,41.3,30.13,NNE,29,11.0,11.0,78,0.00,,,0.00,Wunderground v.1.15,2013-05-02 09:00:00,
2013-05-02 04:04:00,47.6,41.0,30.13,North,351,17.0,22.0,78,0.00,,,0.00,weatherlink.com 1.10,2013-05-02 09:04:00,
2013-05-02 04:10:00,47.3,40.8,30.13,NNW,343,14.0,20.0,78,0.00,,,0.00,Wunderground v.1.15,2013-05-02 09:10:00,
2013-05-02 04:19:00,47.1,41.0,30.13,North,10,16.0,22.0,78,0.00,,,0.00,weatherlink.com 1.10,2013-05-02 09:19:00,
2013-05-02 04:24:00,47.1,40.6,30.13,North,355,13.0,15.0,78,0.00,,,0.00,Wunderground v.1.15,2013-05-02 09:24:00,
2013-05-02 04:29:00,47.1,40.9,30.13,NNW,340,12.0,13.0,79,0.00,,,0.00,Wunderground v.1.15,2013-05-02 09:29:00,
2013-05-02 04:34:00,47.0,41.0,30.13,North,5,18.0,23.0,79,0.00,,,0.00,weatherlink.com 1.10,2013-05-02 09:34:00,
2013-05-02 04:39:00,46.6,40.4,30.13,North,10,15.0,20.0,79,0.00,,,0.00,Wunderground v.1.15,2013-05-02 09:39:00,
2013-05-02 04:44:00,46.4,40.6,30.14,North,355,15.0,20.0,80,0.00,,,0.00,Wunderground v.1.15,2013-05-02 09:44:00,
2013-05-02 04:49:00,46.3,40.0,30.14,NNW,348,14.0,24.0,80,0.00,,,0.00,weatherlink.com 1.10,2013-05-02 09:49:00,
2013-05-02 04:55:00,46.4,40.6,30.14,NNW,338,12.0,15.0,80,0.00,,,0.00,Wunderground v.1.15,2013-05-02 09:55:00,
2013-05-02 05:04:00,46.1,40.0,30.14,NE,35,10.0,26.0,80,0.00,,,0.00,weatherlink.com 1.10,2013-05-02 10:04:00,
2013-05-02 05:10:00,46.0,40.2,30.15,North,11,14.0,14.0,80,0.00,,,0.00,Wunderground v.1.15,2013-05-02 10:10:00,
2013-05-02 05:15:00,46.0,40.2,30.15,North,355,14.0,14.0,80,0.00,,,0.00,Wunderground v.1.15,2013-05-02 10:15:00,
2013-05-02 05:19:00,46.0,40.0,30.15,NNE,21,8.0,24.0,80,0.00,,,0.00,weatherlink.com 1.10,2013-05-02 10:19:00,
2013-05-02 05:25:00,45.8,40.0,30.16,NNW,332,13.0,20.0,80,0.00,,,0.00,Wunderground v.1.15,2013-05-02 10:25:00,
2013-05-02 05:30:00,45.8,40.0,30.16,North,5,14.0,20.0,80,0.00,,,0.00,Wunderground v.1.15,2013-05-02 10:30:00,
2013-05-02 05:34:00,45.9,40.0,30.16,North,351,12.0,24.0,80,0.00,,,0.00,weatherlink.com 1.10,2013-05-02 10:34:00,
2013-05-02 05:40:00,46.0,40.2,30.16,North,355,11.0,16.0,80,0.00,,,0.00,Wunderground v.1.15,2013-05-02 10:40:00,
2013-05-02 05:45:00,46.0,40.2,30.17,NNE,22,11.0,16.0,80,0.00,,,0.00,Wunderground v.1.15,2013-05-02 10:45:00,
2013-05-02 05:50:00,45.9,40.0,30.17,NE,38,14.0,25.0,80,0.00,,,0.00,weatherlink.com 1.10,2013-05-02 10:50:00,
2013-05-02 06:00:00,45.8,40.3,30.18,NNW,348,13.0,13.0,81,0.00,,,0.00,Wunderground v.1.15,2013-05-02 11:00:00,
2013-05-02 06:06:00,45.7,41.0,30.18,North,355,17.0,24.0,82,0.00,,,0.00,weatherlink.com 1.10,2013-05-02 11:06:00,
2013-05-02 06:14:00,45.4,40.8,30.18,North,360,13.0,21.0,84,0.00,,,0.00,Wunderground v.1.15,2013-05-02 11:14:00,
2013-05-02 06:20:00,45.4,41.0,30.19,North,5,7.0,20.0,85,0.00,,,0.00,weatherlink.com 1.10,2013-05-02 11:20:00,
2013-05-02 06:29:00,45.4,40.8,30.19,NNW,340,10.0,16.0,84,0.00,,,0.00,Wunderground v.1.15,2013-05-02 11:29:00,
2013-05-02 06:35:00,45.3,40.7,30.19,NNE,13,12.0,16.0,84,0.00,,,0.00,Wunderground v.1.15,2013-05-02 11:35:00,
2013-05-02 06:36:00,45.2,40.0,30.19,North,350,8.0,25.0,83,0.00,,,0.00,weatherlink.com 1.10,2013-05-02 11:36:00,
2013-05-02 06:45:00,45.1,40.2,30.20,North,5,14.0,15.0,83,0.00,,,0.00,Wunderground v.1.15,2013-05-02 11:45:00,
2013-05-02 06:50:00,45.1,40.2,30.20,NNE,26,13.0,13.0,83,0.00,,,0.00,Wunderground v.1.15,2013-05-02 11:50:00,
2013-05-02 06:51:00,45.1,40.0,30.20,NW,310,20.0,23.0,83,0.00,,,0.00,weatherlink.com 1.10,2013-05-02 11:51:00,
2013-05-02 07:00:00,45.1,40.2,30.21,NNW,345,10.0,11.0,83,0.00,,,0.00,Wunderground v.1.15,2013-05-02 12:00:00,
2013-05-02 07:05:00,45.1,39.9,30.22,North,5,9.0,17.0,82,0.00,,,0.00,Wunderground v.1.15,2013-05-02 12:05:00,
2013-05-02 07:06:00,45.1,40.0,30.21,NNW,333,5.0,19.0,82,0.00,,,0.00,weatherlink.com 1.10,2013-05-02 12:06:00,
2013-05-02 07:15:00,44.9,40.0,30.22,North,351,10.0,11.0,83,0.00,,,0.00,Wunderground v.1.15,2013-05-02 12:15:00,
2013-05-02 07:20:00,44.7,40.0,30.22,North,360,22.0,22.0,83,0.00,,,0.00,weatherlink.com 1.10,2013-05-02 12:20:00,
2013-05-02 07:30:00,44.7,39.5,30.22,North,5,12.0,12.0,82,0.00,,,0.00,Wunderground v.1.15,2013-05-02 12:30:00,
2013-05-02 07:34:00,44.6,39.4,30.23,NNE,18,11.0,12.0,82,0.00,,,0.00,Wunderground v.1.15,2013-05-02 12:34:00,
2013-05-02 07:35:00,44.6,39.0,30.23,NNW,340,6.0,19.0,82,0.00,,,0.00,weatherlink.com 1.10,2013-05-02 12:35:00,
2013-05-02 07:44:00,44.1,39.0,30.23,NNW,339,13.0,18.0,82,0.00,,,0.00,Wunderground v.1.15,2013-05-02 12:44:00,
2013-05-02 07:49:00,44.0,38.9,30.23,NE,55,12.0,16.0,82,0.00,,,0.00,Wunderground v.1.15,2013-05-02 12:49:00,
2013-05-02 07:50:00,44.0,39.0,30.23,NNE,28,12.0,22.0,82,0.00,,,0.00,weatherlink.com 1.10,2013-05-02 12:50:00,
2013-05-02 07:59:00,43.9,38.8,30.23,NNE,30,14.0,14.0,82,0.00,,,0.00,Wunderground v.1.15,2013-05-02 12:59:00,
2013-05-02 08:05:00,44.0,39.0,30.24,NNE,23,9.0,22.0,82,0.00,,,0.00,weatherlink.com 1.10,2013-05-02 13:05:00,
2013-05-02 08:14:00,44.1,38.6,30.24,North,9,11.0,11.0,81,0.00,,,0.00,Wunderground v.1.15,2013-05-02 13:14:00,
2013-05-02 08:19:00,44.2,38.7,30.24,NNE,13,12.0,12.0,81,0.00,,,0.00,Wunderground v.1.15,2013-05-02 13:19:00,
2013-05-02 08:21:00,44.2,39.0,30.24,North,355,16.0,23.0,81,0.00,,,0.00,weatherlink.com 1.10,2013-05-02 13:21:00,
2013-05-02 08:30:00,44.3,38.8,30.25,North,10,13.0,15.0,81,0.00,,,0.00,Wunderground v.1.15,2013-05-02 13:30:00,
2013-05-02 08:35:00,44.4,38.6,30.25,North,5,13.0,15.0,80,0.00,,,0.00,Wunderground v.1.15,2013-05-02 13:35:00,
2013-05-02 08:37:00,44.5,39.0,30.25,North,350,13.0,25.0,80,0.00,,,0.00,weatherlink.com 1.10,2013-05-02 13:37:00,
2013-05-02 08:45:00,44.6,38.8,30.25,NW,324,11.0,19.0,80,0.00,,,0.00,Wunderground v.1.15,2013-05-02 13:45:00,
2013-05-02 08:50:00,44.6,38.8,30.26,North,350,12.0,14.0,80,0.00,,,0.00,Wunderground v.1.15,2013-05-02 13:50:00,
2013-05-02 08:52:00,44.6,39.0,30.25,North,5,6.0,21.0,80,0.00,,,0.00,weatherlink.com 1.10,2013-05-02 13:52:00,
2013-05-02 09:00:00,45.0,38.9,30.25,North,349,10.0,11.0,79,0.00,,,0.00,Wunderground v.1.15,2013-05-02 14:00:00,
2013-05-02 09:06:00,45.0,39.0,30.26,North,355,15.0,22.0,79,0.00,,,0.00,weatherlink.com 1.10,2013-05-02 14:06:00,
2013-05-02 09:14:00,44.9,38.5,30.26,North,355,14.0,14.0,78,0.00,,,0.00,Wunderground v.1.15,2013-05-02 14:14:00,
2013-05-02 09:19:00,45.0,38.9,30.26,NNW,344,13.0,18.0,79,0.00,,,0.00,Wunderground v.1.15,2013-05-02 14:19:00,
2013-05-02 09:21:00,44.9,38.0,30.26,North,355,14.0,25.0,78,0.00,,,0.00,weatherlink.com 1.10,2013-05-02 14:21:00,
2013-05-02 09:30:00,45.0,38.6,30.26,North,9,15.0,15.0,78,0.00,,,0.00,Wunderground v.1.15,2013-05-02 14:30:00,
2013-05-02 09:36:00,45.0,39.0,30.27,North,5,13.0,26.0,79,0.00,,,0.00,weatherlink.com 1.10,2013-05-02 14:36:00,
2013-05-02 09:39:00,44.9,38.5,30.27,NE,41,13.0,14.0,78,0.00,,,0.00,Wunderground v.1.15,2013-05-02 14:39:00,
2013-05-02 09:44:00,45.0,38.6,30.27,NNE,14,12.0,19.0,78,0.00,,,0.00,Wunderground v.1.15,2013-05-02 14:44:00,
2013-05-02 09:49:00,45.0,38.2,30.26,NNW,338,13.0,14.0,77,0.00,,,0.00,Wunderground v.1.15,2013-05-02 14:49:00,
2013-05-02 09:51:00,44.9,38.0,30.26,NNE,25,8.0,27.0,77,0.00,,,0.00,weatherlink.com 1.10,2013-05-02 14:51:00,
2013-05-02 09:59:00,45.1,38.3,30.26,NNE,21,13.0,13.0,77,0.00,,,0.00,Wunderground v.1.15,2013-05-02 14:59:00,
2013-05-02 10:09:00,45.4,39.0,30.27,North,11,12.0,21.0,77,0.00,,,0.00,weatherlink.com 1.10,2013-05-02 15:09:00,
2013-05-02 10:14:00,45.5,38.4,30.28,North,355,13.0,24.0,76,0.00,,,0.00,Wunderground v.1.15,2013-05-02 15:14:00,
2013-05-02 10:20:00,45.6,38.5,30.28,North,351,14.0,14.0,76,0.00,,,0.00,Wunderground v.1.15,2013-05-02 15:20:00,
2013-05-02 10:22:00,45.7,39.0,30.28,NNW,341,19.0,27.0,76,0.00,,,0.00,weatherlink.com 1.10,2013-05-02 15:22:00,
2013-05-02 10:29:00,45.9,38.8,30.28,NNW,336,11.0,11.0,76,0.00,,,0.00,Wunderground v.1.15,2013-05-02 15:29:00,
2013-05-02 10:35:00,45.8,38.7,30.28,NNE,15,11.0,11.0,76,0.00,,,0.00,Wunderground v.1.15,2013-05-02 15:35:00,
2013-05-02 10:39:00,45.9,39.0,30.28,NNW,340,16.0,25.0,76,0.00,,,0.00,weatherlink.com 1.10,2013-05-02 15:39:00,
2013-05-02 10:45:00,45.7,38.6,30.28,North,5,13.0,14.0,76,0.00,,,0.00,Wunderground v.1.15,2013-05-02 15:45:00,
2013-05-02 10:52:00,45.9,39.0,30.29,NNW,335,5.0,21.0,77,0.00,,,0.00,weatherlink.com 1.10,2013-05-02 15:52:00,
2013-05-02 10:59:00,45.7,38.9,30.30,North,11,12.0,12.0,77,0.00,,,0.00,Wunderground v.1.15,2013-05-02 15:59:00,
2013-05-02 11:04:00,45.8,39.3,30.30,North,5,11.0,15.0,78,0.00,,,0.00,Wunderground v.1.15,2013-05-02 16:04:00,
2013-05-02 11:09:00,45.5,39.0,30.30,North,355,4.0,21.0,77,0.00,,,0.00,weatherlink.com 1.10,2013-05-02 16:09:00,
2013-05-02 11:15:00,45.3,38.8,30.31,NNW,344,11.0,11.0,78,0.00,,,0.00,Wunderground v.1.15,2013-05-02 16:15:00,
2013-05-02 11:24:00,45.2,39.0,30.30,NNE,19,17.0,30.0,78,0.00,,,0.00,weatherlink.com 1.10,2013-05-02 16:24:00,
2013-05-02 11:30:00,45.0,38.2,30.30,North,351,15.0,15.0,77,0.00,,,0.00,Wunderground v.1.15,2013-05-02 16:30:00,
2013-05-02 11:35:00,45.1,38.3,30.30,North,355,14.0,15.0,77,0.00,,,0.00,Wunderground v.1.15,2013-05-02 16:35:00,
2013-05-02 11:39:00,45.1,38.0,30.30,NNE,22,7.0,22.0,77,0.00,,,0.00,weatherlink.com 1.10,2013-05-02 16:39:00,
2013-05-02 11:45:00,45.3,38.5,30.30,North,5,12.0,13.0,77,0.00,,,0.00,Wunderground v.1.15,2013-05-02 16:45:00,
2013-05-02 11:52:00,44.9,38.0,30.28,North,11,7.0,22.0,77,0.00,,,0.00,weatherlink.com 1.10,2013-05-02 16:52:00,
2013-05-02 11:54:00,44.9,38.1,30.28,NNW,346,11.0,19.0,77,0.00,,,0.00,Wunderground v.1.15,2013-05-02 16:54:00,
2013-05-02 11:59:00,44.7,38.3,30.28,North,360,12.0,20.0,78,0.00,,,0.00,Wunderground v.1.15,2013-05-02 16:59:00,
2013-05-02 12:04:00,44.5,38.1,30.28,NNE,26,13.0,21.0,78,0.00,,,0.00,Wunderground v.1.15,2013-05-02 17:04:00,
2013-05-02 12:09:00,44.5,38.0,30.29,NW,324,14.0,23.0,78,0.00,,,0.00,weatherlink.com 1.10,2013-05-02 17:09:00,
2013-05-02 12:15:00,44.6,38.5,30.28,North,5,13.0,14.0,79,0.00,,,0.00,Wunderground v.1.15,2013-05-02 17:15:00,
2013-05-02 12:20:00,44.8,38.7,30.29,NNW,342,13.0,16.0,79,0.00,,,0.00,Wunderground v.1.15,2013-05-02 17:20:00,
2013-05-02 12:24:00,45.0,39.0,30.30,North,5,13.0,23.0,79,0.00,,,0.00,weatherlink.com 1.10,2013-05-02 17:24:00,
2013-05-02 12:30:00,45.1,38.6,30.30,NNE,25,13.0,13.0,78,0.00,,,0.00,Wunderground v.1.15,2013-05-02 17:30:00,
2013-05-02 12:39:00,44.7,38.0,30.32,NNW,342,12.0,19.0,78,0.00,,,0.00,weatherlink.com 1.10,2013-05-02 17:39:00,
2013-05-02 12:40:00,44.7,38.6,30.32,NNE,17,12.0,12.0,79,0.00,,,0.00,Wunderground v.1.15,2013-05-02 17:40:00,
2013-05-02 12:49:00,44.1,38.3,30.32,North,5,11.0,11.0,80,0.00,,,0.00,Wunderground v.1.15,2013-05-02 17:49:00,
2013-05-02 12:54:00,43.9,38.0,30.33,NNE,17,10.0,21.0,80,0.00,,,0.00,weatherlink.com 1.10,2013-05-02 17:54:00,
2013-05-02 13:00:00,43.9,38.1,30.33,North,10,11.0,11.0,80,0.00,,,0.00,Wunderground v.1.15,2013-05-02 18:00:00,
2013-05-02 13:05:00,44.0,38.2,30.33,NNW,338,10.0,12.0,80,0.00,,,0.00,Wunderground v.1.15,2013-05-02 18:05:00,
2013-05-02 13:08:00,43.8,38.0,30.33,NNW,336,5.0,19.0,80,0.00,,,0.00,weatherlink.com 1.10,2013-05-02 18:08:00,
2013-05-02 13:15:00,43.7,37.9,30.33,NNW,342,11.0,14.0,80,0.00,,,0.00,Wunderground v.1.15,2013-05-02 18:15:00,
2013-05-02 13:24:00,43.6,38.0,30.33,NNW,341,11.0,22.0,80,0.00,,,0.00,weatherlink.com 1.10,2013-05-02 18:24:00,
2013-05-02 13:29:00,43.7,37.6,30.33,NNW,331,13.0,13.0,79,0.00,,,0.00,Wunderground v.1.15,2013-05-02 18:29:00,
2013-05-02 13:34:00,43.6,37.8,30.33,NNW,333,14.0,14.0,80,0.00,,,0.00,Wunderground v.1.15,2013-05-02 18:34:00,
2013-05-02 13:39:00,43.6,38.0,30.33,NNW,331,12.0,22.0,80,0.00,,,0.00,weatherlink.com 1.10,2013-05-02 18:39:00,
2013-05-02 13:44:00,43.7,37.9,30.34,NNE,15,12.0,20.0,80,0.00,,,0.00,Wunderground v.1.15,2013-05-02 18:44:00,
2013-05-02 13:49:00,43.7,37.9,30.33,North,5,13.0,13.0,80,0.00,,,0.00,Wunderground v.1.15,2013-05-02 18:49:00,
2013-05-02 13:54:00,44.0,38.0,30.34,North,355,14.0,23.0,80,0.00,,,0.00,weatherlink.com 1.10,2013-05-02 18:54:00,
2013-05-02 13:59:00,44.0,38.2,30.33,NNW,340,10.0,12.0,80,0.00,,,0.00,Wunderground v.1.15,2013-05-02 18:59:00,
2013-05-02 14:04:00,44.0,37.9,30.33,NNW,338,13.0,13.0,79,0.00,,,0.00,Wunderground v.1.15,2013-05-02 19:04:00,
2013-05-02 14:09:00,44.0,38.0,30.34,North,355,14.0,23.0,79,0.00,,,0.00,weatherlink.com 1.10,2013-05-02 19:09:00,
2013-05-02 14:14:00,44.0,37.9,30.33,NNW,345,10.0,14.0,79,0.00,,,0.00,Wunderground v.1.15,2013-05-02 19:14:00,
2013-05-02 14:24:00,43.8,37.0,30.34,North,351,9.0,24.0,78,0.00,,,0.00,weatherlink.com 1.10,2013-05-02 19:24:00,
2013-05-02 14:29:00,43.8,37.7,30.34,North,5,13.0,19.0,79,0.00,,,0.00,Wunderground v.1.15,2013-05-02 19:29:00,
2013-05-02 14:34:00,43.8,37.7,30.34,North,5,13.0,19.0,79,0.00,,,0.00,Wunderground v.1.15,2013-05-02 19:34:00,
2013-05-02 14:39:00,43.7,38.0,30.34,NNW,335,12.0,25.0,79,0.00,,,0.00,weatherlink.com 1.10,2013-05-02 19:39:00,
2013-05-02 14:44:00,43.7,37.6,30.35,NNW,339,13.0,13.0,79,0.00,,,0.00,Wunderground v.1.15,2013-05-02 19:44:00,
2013-05-02 14:49:00,43.8,37.7,30.34,North,355,12.0,12.0,79,0.00,,,0.00,Wunderground v.1.15,2013-05-02 19:49:00,
2013-05-02 14:55:00,43.9,37.0,30.35,North,351,12.0,22.0,78,0.00,,,0.00,weatherlink.com 1.10,2013-05-02 19:55:00,
2013-05-02 15:04:00,43.7,37.3,30.35,NNW,341,13.0,16.0,78,0.00,,,0.00,Wunderground v.1.15,2013-05-02 20:04:00,
2013-05-02 15:10:00,43.6,38.0,30.35,North,355,7.0,23.0,79,0.00,,,0.00,weatherlink.com 1.10,2013-05-02 20:10:00,
2013-05-02 15:14:00,43.6,37.5,30.35,North,5,12.0,12.0,79,0.00,,,0.00,Wunderground v.1.15,2013-05-02 20:14:00,
2013-05-02 15:24:00,43.1,37.7,30.35,North,355,13.0,14.0,81,0.00,,,0.00,Wunderground v.1.15,2013-05-02 20:24:00,
2013-05-02 15:25:00,43.0,38.0,30.35,North,355,14.0,25.0,82,0.00,,,0.00,weatherlink.com 1.10,2013-05-02 20:25:00,
2013-05-02 15:34:00,42.0,37.5,30.36,North,355,12.0,12.0,84,0.00,,,0.00,Wunderground v.1.15,2013-05-02 20:34:00,
2013-05-02 15:40:00,41.8,38.0,30.36,NNW,342,14.0,22.0,85,0.00,,,0.00,weatherlink.com 1.10,2013-05-02 20:40:00,
2013-05-02 15:50:00,41.4,37.5,30.35,NNW,345,12.0,12.0,86,0.00,,,0.00,Wunderground v.1.15,2013-05-02 20:50:00,
2013-05-02 15:56:00,41.1,38.0,30.35,NW,304,13.0,21.0,87,0.00,,,0.00,weatherlink.com 1.10,2013-05-02 20:56:00,
2013-05-02 16:04:00,40.6,37.3,30.35,NNW,337,13.0,19.0,88,0.00,,,0.01,Wunderground v.1.15,2013-05-02 21:04:00,
2013-05-02 16:10:00,40.5,37.2,30.35,North,360,14.0,25.0,88,0.00,,,0.01,Wunderground v.1.15,2013-05-02 21:10:00,
2013-05-02 16:11:00,40.4,37.0,30.35,North,360,14.0,25.0,88,0.01,,,0.01,weatherlink.com 1.10,2013-05-02 21:11:00,
2013-05-02 16:20:00,40.2,36.9,30.35,NNE,22,16.0,18.0,88,0.00,,,0.01,Wunderground v.1.15,2013-05-02 21:20:00,
2013-05-02 16:25:00,40.2,37.2,30.35,North,5,15.0,18.0,89,0.00,,,0.01,Wunderground v.1.15,2013-05-02 21:25:00,
2013-05-02 16:26:00,40.1,37.0,30.34,NNE,24,8.0,29.0,89,0.01,,,0.01,weatherlink.com 1.10,2013-05-02 21:26:00,
2013-05-02 16:35:00,40.5,37.5,30.35,North,5,12.0,14.0,89,0.00,,,0.01,Wunderground v.1.15,2013-05-02 21:35:00,
2013-05-02 16:40:00,40.4,37.4,30.35,NNW,343,12.0,15.0,89,0.00,,,0.01,Wunderground v.1.15,2013-05-02 21:40:00,
2013-05-02 16:41:00,40.4,38.0,30.36,North,5,9.0,20.0,89,0.01,,,0.01,weatherlink.com 1.10,2013-05-02 21:41:00,
2013-05-02 16:45:00,40.3,37.0,30.36,North,360,14.0,20.0,88,0.00,,,0.02,Wunderground v.1.15,2013-05-02 21:45:00,
2013-05-02 16:50:00,40.3,37.3,30.35,NNW,347,15.0,18.0,89,0.00,,,0.02,Wunderground v.1.15,2013-05-02 21:50:00,
2013-05-02 16:55:00,40.3,37.3,30.36,North,355,15.0,18.0,89,0.00,,,0.02,Wunderground v.1.15,2013-05-02 21:55:00,
2013-05-02 16:56:00,40.3,37.0,30.36,NNW,344,12.0,27.0,89,0.02,,,0.02,weatherlink.com 1.10,2013-05-02 21:56:00,
2013-05-02 17:00:00,40.4,37.4,30.35,NNW,341,15.0,22.0,89,0.00,,,0.02,Wunderground v.1.15,2013-05-02 22:00:00,
2013-05-02 17:10:00,40.6,37.3,30.35,NNW,344,15.0,15.0,88,0.00,,,0.02,Wunderground v.1.15,2013-05-02 22:10:00,
2013-05-02 17:11:00,40.6,37.0,30.35,North,5,18.0,25.0,88,0.01,,,0.02,weatherlink.com 1.10,2013-05-02 22:11:00,
2013-05-02 17:15:00,40.6,37.3,30.35,North,350,14.0,15.0,88,0.00,,,0.02,Wunderground v.1.15,2013-05-02 22:15:00,
2013-05-02 17:20:00,40.7,37.1,30.35,NNE,17,14.0,14.0,87,0.00,,,0.02,Wunderground v.1.15,2013-05-02 22:20:00,
2013-05-02 17:25:00,40.8,37.2,30.36,North,5,14.0,20.0,87,0.00,,,0.02,Wunderground v.1.15,2013-05-02 22:25:00,
2013-05-02 17:26:00,40.8,37.0,30.35,North,5,14.0,25.0,87,0.01,,,0.02,weatherlink.com 1.10,2013-05-02 22:26:00,
2013-05-02 17:35:00,40.9,37.0,30.35,NNW,338,14.0,19.0,86,0.00,,,0.03,Wunderground v.1.15,2013-05-02 22:35:00,
2013-05-02 17:40:00,41.0,36.8,30.35,NNW,335,15.0,15.0,85,0.00,,,0.03,Wunderground v.1.15,2013-05-02 22:40:00,
2013-05-02 17:41:00,41.1,37.0,30.36,NW,326,10.0,29.0,85,0.01,,,0.03,weatherlink.com 1.10,2013-05-02 22:41:00,
2013-05-02 17:50:00,41.4,36.9,30.36,NE,36,15.0,15.0,84,0.00,,,0.03,Wunderground v.1.15,2013-05-02 22:50:00,
2013-05-02 17:56:00,41.5,36.0,30.36,NW,325,10.0,27.0,82,0.01,,,0.03,weatherlink.com 1.10,2013-05-02 22:56:00,
2013-05-02 18:05:00,41.6,36.5,30.37,NNE,22,16.0,16.0,82,0.00,,,0.03,Wunderground v.1.15,2013-05-02 23:05:00,
2013-05-02 18:10:00,41.6,36.5,30.36,North,5,15.0,19.0,82,0.00,,,0.03,Wunderground v.1.15,2013-05-02 23:10:00,
2013-05-02 18:11:00,41.6,37.0,30.36,North,355,22.0,27.0,82,0.01,,,0.03,weatherlink.com 1.10,2013-05-02 23:11:00,
2013-05-02 18:20:00,41.6,36.2,30.36,NNW,337,17.0,17.0,81,0.00,,,0.03,Wunderground v.1.15,2013-05-02 23:20:00,
2013-05-02 18:25:00,41.8,36.1,30.36,North,5,14.0,17.0,80,0.00,,,0.03,Wunderground v.1.15,2013-05-02 23:25:00,
2013-05-02 18:27:00,41.8,36.0,30.36,NNW,327,16.0,30.0,80,0.01,,,0.03,weatherlink.com 1.10,2013-05-02 23:27:00,
2013-05-02 18:35:00,41.9,36.2,30.37,North,355,15.0,20.0,80,0.00,,,0.03,Wunderground v.1.15,2013-05-02 23:35:00,
2013-05-02 18:41:00,42.0,36.0,30.36,North,351,22.0,27.0,79,0.00,,,0.03,weatherlink.com 1.10,2013-05-02 23:41:00,
2013-05-02 18:50:00,42.0,36.0,30.37,NNE,29,14.0,15.0,79,0.00,,,0.03,Wunderground v.1.15,2013-05-02 23:50:00,
2013-05-02 18:57:00,42.0,36.0,30.36,NNW,342,15.0,23.0,80,0.00,,,0.03,weatherlink.com 1.10,2013-05-02 23:57:00,
2013-05-02 19:05:00,42.1,36.7,30.37,NE,46,11.0,17.0,81,0.00,,,0.03,Wunderground v.1.15,2013-05-03 00:05:00,
2013-05-02 19:12:00,42.1,37.0,30.37,NW,317,19.0,22.0,81,0.00,,,0.03,weatherlink.com 1.10,2013-05-03 00:12:00,
2013-05-02 19:20:00,42.2,36.5,30.36,NNW,345,13.0,14.0,80,0.00,,,0.03,Wunderground v.1.15,2013-05-03 00:20:00,
2013-05-02 19:27:00,42.2,36.0,30.37,North,355,10.0,22.0,79,0.00,,,0.03,weatherlink.com 1.10,2013-05-03 00:27:00,
2013-05-02 19:35:00,42.4,36.0,30.36,North,5,14.0,18.0,78,0.00,,,0.03,Wunderground v.1.15,2013-05-03 00:35:00,
2013-05-02 19:40:00,42.4,36.3,30.37,North,360,14.0,16.0,79,0.00,,,0.03,Wunderground v.1.15,2013-05-03 00:40:00,
2013-05-02 19:42:00,42.5,36.0,30.37,North,355,8.0,23.0,79,0.00,,,0.03,weatherlink.com 1.10,2013-05-03 00:42:00,
2013-05-02 19:50:00,42.6,36.2,30.37,NNW,341,12.0,12.0,78,0.00,,,0.03,Wunderground v.1.15,2013-05-03 00:50:00,
2013-05-02 19:57:00,42.7,37.0,30.37,NNW,342,7.0,17.0,79,0.00,,,0.03,weatherlink.com 1.10,2013-05-03 00:57:00,
2013-05-02 20:00:00,42.8,36.7,30.37,NNE,15,8.0,11.0,79,0.00,,,0.03,Wunderground v.1.15,2013-05-03 01:00:00,
2013-05-02 20:10:00,42.9,36.8,30.37,North,360,10.0,12.0,79,0.00,,,0.03,Wunderground v.1.15,2013-05-03 01:10:00,
2013-05-02 20:12:00,43.0,37.0,30.38,NE,34,9.0,19.0,79,0.00,,,0.03,weatherlink.com 1.10,2013-05-03 01:12:00,
2013-05-02 20:20:00,43.4,36.7,30.38,North,355,13.0,16.0,77,0.00,,,0.03,Wunderground v.1.15,2013-05-03 01:20:00,
2013-05-02 20:25:00,43.4,36.3,30.38,NNW,346,13.0,16.0,76,0.00,,,0.03,Wunderground v.1.15,2013-05-03 01:25:00,
2013-05-02 20:27:00,43.4,36.0,30.38,NNW,346,16.0,22.0,75,0.00,,,0.03,weatherlink.com 1.10,2013-05-03 01:27:00,
2013-05-02 20:35:00,43.4,35.7,30.38,North,351,13.0,13.0,74,0.00,,,0.03,Wunderground v.1.15,2013-05-03 01:35:00,
2013-05-02 20:44:00,43.3,36.0,30.39,North,5,10.0,26.0,74,0.00,,,0.03,weatherlink.com 1.10,2013-05-03 01:44:00,
2013-05-02 20:50:00,43.3,35.2,30.39,NNW,348,13.0,13.0,73,0.00,,,0.03,Wunderground v.1.15,2013-05-03 01:50:00,
2013-05-02 20:55:00,43.3,35.2,30.39,NNE,28,13.0,17.0,73,0.00,,,0.03,Wunderground v.1.15,2013-05-03 01:55:00,
2013-05-02 20:59:00,43.3,35.0,30.39,North,5,8.0,29.0,72,0.00,,,0.03,weatherlink.com 1.10,2013-05-03 01:59:00,
2013-05-02 21:05:00,43.2,34.8,30.39,NNE,17,13.0,20.0,72,0.00,,,0.03,Wunderground v.1.15,2013-05-03 02:05:00,
2013-05-02 21:10:00,43.1,35.0,30.39,North,9,11.0,11.0,73,0.00,,,0.03,Wunderground v.1.15,2013-05-03 02:10:00,
2013-05-02 21:14:00,43.1,35.0,30.39,North,9,13.0,20.0,72,0.00,,,0.03,weatherlink.com 1.10,2013-05-03 02:14:00,
2013-05-02 21:20:00,43.1,34.7,30.39,NNW,340,12.0,12.0,72,0.00,,,0.03,Wunderground v.1.15,2013-05-03 02:20:00,
2013-05-02 21:25:00,43.1,34.7,30.39,North,5,11.0,12.0,72,0.00,,,0.03,Wunderground v.1.15,2013-05-03 02:25:00,
2013-05-02 21:29:00,43.1,35.0,30.39,NNE,26,12.0,18.0,72,0.00,,,0.03,weatherlink.com 1.10,2013-05-03 02:29:00,
2013-05-02 21:30:00,43.1,34.7,30.39,NNW,334,10.0,15.0,72,0.00,,,0.03,Wunderground v.1.15,2013-05-03 02:30:00,
2013-05-02 21:35:00,43.1,34.7,30.39,NNE,15,11.0,15.0,72,0.00,,,0.03,Wunderground v.1.15,2013-05-03 02:35:00,
2013-05-02 21:44:00,43.1,35.0,30.39,North,350,6.0,20.0,72,0.00,,,0.03,weatherlink.com 1.10,2013-05-03 02:44:00,
2013-05-02 21:50:00,43.2,34.4,30.40,NNE,31,11.0,12.0,71,0.00,,,0.03,Wunderground v.1.15,2013-05-03 02:50:00,
2013-05-02 21:55:00,43.3,34.5,30.40,North,355,10.0,12.0,71,0.00,,,0.03,Wunderground v.1.15,2013-05-03 02:55:00,
2013-05-02 21:59:00,43.3,34.0,30.39,North,5,9.0,18.0,70,0.00,,,0.03,weatherlink.com 1.10,2013-05-03 02:59:00,
2013-05-02 22:05:00,43.3,34.2,30.40,NE,43,10.0,11.0,70,0.00,,,0.03,Wunderground v.1.15,2013-05-03 03:05:00,
2013-05-02 22:10:00,43.3,34.2,30.40,NNW,347,10.0,13.0,70,0.00,,,0.03,Wunderground v.1.15,2013-05-03 03:10:00,
2013-05-02 22:14:00,43.3,34.0,30.40,North,360,11.0,17.0,70,0.00,,,0.03,weatherlink.com 1.10,2013-05-03 03:14:00,
2013-05-02 22:20:00,43.3,34.2,30.40,North,360,9.0,9.0,70,0.00,,,0.03,Wunderground v.1.15,2013-05-03 03:20:00,
2013-05-02 22:28:00,43.3,34.0,30.40,NNE,17,5.0,17.0,70,0.00,,,0.03,weatherlink.com 1.10,2013-05-03 03:28:00,
2013-05-02 22:35:00,43.2,34.1,30.40,North,9,10.0,11.0,70,0.00,,,0.03,Wunderground v.1.15,2013-05-03 03:35:00,
2013-05-02 22:40:00,43.1,34.0,30.40,North,355,10.0,10.0,70,0.00,,,0.03,Wunderground v.1.15,2013-05-03 03:40:00,
2013-05-02 22:44:00,43.1,34.0,30.40,NNW,344,14.0,17.0,70,0.00,,,0.03,weatherlink.com 1.10,2013-05-03 03:44:00,
2013-05-02 22:50:00,42.9,34.1,30.40,NNW,348,9.0,9.0,71,0.00,,,0.03,Wunderground v.1.15,2013-05-03 03:50:00,
2013-05-02 22:55:00,42.8,34.0,30.39,North,11,9.0,10.0,71,0.00,,,0.03,Wunderground v.1.15,2013-05-03 03:55:00,
2013-05-02 22:59:00,42.6,34.0,30.39,North,5,9.0,17.0,71,0.00,,,0.03,weatherlink.com 1.10,2013-05-03 03:59:00,
2013-05-02 23:05:00,42.5,34.1,30.39,North,5,9.0,10.0,72,0.00,,,0.03,Wunderground v.1.15,2013-05-03 04:05:00,
2013-05-02 23:10:00,42.4,34.0,30.39,North,11,8.0,8.0,72,0.00,,,0.03,Wunderground v.1.15,2013-05-03 04:10:00,
2013-05-02 23:14:00,42.2,34.0,30.39,NNW,348,11.0,16.0,72,0.00,,,0.03,weatherlink.com 1.10,2013-05-03 04:14:00,
2013-05-02 23:15:00,42.2,33.8,30.39,North,9,8.0,10.0,72,0.00,,,0.03,Wunderground v.1.15,2013-05-03 04:15:00,
2013-05-02 23:20:00,42.0,33.6,30.39,North,5,8.0,8.0,72,0.00,,,0.03,Wunderground v.1.15,2013-05-03 04:20:00,
2013-05-02 23:25:00,41.9,33.5,30.39,North,355,8.0,10.0,72,0.00,,,0.03,Wunderground v.1.15,2013-05-03 04:25:00,
2013-05-02 23:29:00,41.8,34.0,30.39,North,360,12.0,14.0,73,0.00,,,0.03,weatherlink.com 1.10,2013-05-03 04:29:00,
2013-05-02 23:35:00,41.7,33.7,30.39,NNW,348,8.0,9.0,73,0.00,,,0.03,Wunderground v.1.15,2013-05-03 04:35:00,
2013-05-02 23:44:00,41.4,34.0,30.39,North,350,7.0,11.0,74,0.00,,,0.03,weatherlink.com 1.10,2013-05-03 04:44:00,
2013-05-02 23:45:00,41.4,33.7,30.39,North,5,6.0,8.0,74,0.00,,,0.03,Wunderground v.1.15,2013-05-03 04:45:00,
2013-05-02 23:50:00,41.2,33.5,30.39,North,5,6.0,6.0,74,0.00,,,0.03,Wunderground v.1.15,2013-05-03 04:50:00,
2013-05-02 23:59:00,41.0,34.0,30.39,North,5,7.0,12.0,75,0.00,,,0.03,weatherlink.com 1.10,2013-05-03 04:59:00,